sensor_id;sensor_type;location;lat;lon;timestamp;pressure;altitude;pressure_sealevel;temperature;humidity
25610;BME280;13479;49.044;8.716;2024-02-15T00:02:01;99413.75;;;12.87;76.36
25610;BME280;13479;49.044;8.716;2024-02-15T00:04:26;99414.41;;;12.89;76.48
25610;BME280;13479;49.044;8.716;2024-02-15T00:06:52;99424.66;;;12.84;76.24
25610;BME280;13479;49.044;8.716;2024-02-15T00:09:17;99428.31;;;12.83;76.43
25610;BME280;13479;49.044;8.716;2024-02-15T00:11:43;99421.56;;;12.79;76.35
25610;BME280;13479;49.044;8.716;2024-02-15T00:14:08;99424.63;;;12.74;76.43
25610;BME280;13479;49.044;8.716;2024-02-15T00:16:34;99415.56;;;12.77;76.17
25610;BME280;13479;49.044;8.716;2024-02-15T00:19:00;99429.84;;;12.76;75.90
25610;BME280;13479;49.044;8.716;2024-02-15T00:21:25;99446.34;;;12.70;75.82
25610;BME280;13479;49.044;8.716;2024-02-15T00:23:51;99454.34;;;12.60;75.61
25610;BME280;13479;49.044;8.716;2024-02-15T00:26:16;99441.69;;;12.52;75.95
25610;BME280;13479;49.044;8.716;2024-02-15T00:28:41;99426.31;;;12.34;76.41
25610;BME280;13479;49.044;8.716;2024-02-15T00:31:07;99409.94;;;12.29;76.59
25610;BME280;13479;49.044;8.716;2024-02-15T00:33:33;99388.59;;;12.19;76.89
25610;BME280;13479;49.044;8.716;2024-02-15T00:35:58;99403.09;;;12.05;77.23
25610;BME280;13479;49.044;8.716;2024-02-15T00:38:23;99381.28;;;11.90;77.87
25610;BME280;13479;49.044;8.716;2024-02-15T00:40:49;99391.88;;;11.81;78.55
25610;BME280;13479;49.044;8.716;2024-02-15T00:43:14;99395.06;;;11.74;79.06
25610;BME280;13479;49.044;8.716;2024-02-15T00:45:39;99408.00;;;11.89;79.51
25610;BME280;13479;49.044;8.716;2024-02-15T00:48:05;99416.69;;;11.91;79.41
25610;BME280;13479;49.044;8.716;2024-02-15T00:50:31;99421.00;;;12.03;79.72
25610;BME280;13479;49.044;8.716;2024-02-15T00:52:56;99427.69;;;11.98;79.82
25610;BME280;13479;49.044;8.716;2024-02-15T00:55:23;99412.75;;;11.85;79.99
25610;BME280;13479;49.044;8.716;2024-02-15T00:57:48;99411.28;;;11.71;80.57
25610;BME280;13479;49.044;8.716;2024-02-15T01:00:14;99422.41;;;11.65;80.90
25610;BME280;13479;49.044;8.716;2024-02-15T01:02:39;99416.72;;;11.49;81.29
25610;BME280;13479;49.044;8.716;2024-02-15T01:05:05;99414.50;;;11.33;82.07
25610;BME280;13479;49.044;8.716;2024-02-15T01:07:30;99427.69;;;11.23;82.36
25610;BME280;13479;49.044;8.716;2024-02-15T01:09:55;99440.53;;;11.18;83.05
25610;BME280;13479;49.044;8.716;2024-02-15T01:12:21;99440.63;;;11.16;83.42
25610;BME280;13479;49.044;8.716;2024-02-15T01:14:46;99457.81;;;11.12;83.34
25610;BME280;13479;49.044;8.716;2024-02-15T01:17:12;99458.56;;;11.03;83.27
25610;BME280;13479;49.044;8.716;2024-02-15T01:19:37;99457.72;;;11.02;83.70
25610;BME280;13479;49.044;8.716;2024-02-15T01:22:03;99460.63;;;10.88;84.31
25610;BME280;13479;49.044;8.716;2024-02-15T01:24:28;99466.22;;;10.85;84.82
25610;BME280;13479;49.044;8.716;2024-02-15T01:26:55;99475.97;;;10.95;85.04
25610;BME280;13479;49.044;8.716;2024-02-15T01:29:20;99483.56;;;10.89;85.16
25610;BME280;13479;49.044;8.716;2024-02-15T01:31:45;99486.25;;;10.77;85.77
25610;BME280;13479;49.044;8.716;2024-02-15T01:34:11;99488.66;;;10.80;85.85
25610;BME280;13479;49.044;8.716;2024-02-15T01:36:36;99494.47;;;10.86;85.85
25610;BME280;13479;49.044;8.716;2024-02-15T01:39:01;99505.78;;;10.99;85.85
25610;BME280;13479;49.044;8.716;2024-02-15T01:41:26;99496.41;;;10.84;85.44
25610;BME280;13479;49.044;8.716;2024-02-15T01:43:52;99493.13;;;10.91;85.80
25610;BME280;13479;49.044;8.716;2024-02-15T01:46:17;99486.34;;;10.87;85.90
25610;BME280;13479;49.044;8.716;2024-02-15T01:48:45;99499.50;;;11.00;85.60
25610;BME280;13479;49.044;8.716;2024-02-15T01:51:12;99524.63;;;11.07;85.23
25610;BME280;13479;49.044;8.716;2024-02-15T01:53:40;99519.56;;;10.93;85.44
25610;BME280;13479;49.044;8.716;2024-02-15T01:56:07;99493.44;;;10.98;85.60
25610;BME280;13479;49.044;8.716;2024-02-15T01:58:33;99506.63;;;11.11;85.16
25610;BME280;13479;49.044;8.716;2024-02-15T02:01:00;99511.09;;;10.99;85.35
25610;BME280;13479;49.044;8.716;2024-02-15T02:03:25;99498.06;;;11.07;85.06
25610;BME280;13479;49.044;8.716;2024-02-15T02:05:50;99516.34;;;11.22;84.41
25610;BME280;13479;49.044;8.716;2024-02-15T02:08:16;99543.03;;;11.32;83.46
25610;BME280;13479;49.044;8.716;2024-02-15T02:10:41;99558.84;;;11.44;81.85
25610;BME280;13479;49.044;8.716;2024-02-15T02:13:08;99528.56;;;11.36;81.61
25610;BME280;13479;49.044;8.716;2024-02-15T02:15:34;99507.78;;;11.30;82.02
25610;BME280;13479;49.044;8.716;2024-02-15T02:18:02;99501.72;;;11.27;81.86
25610;BME280;13479;49.044;8.716;2024-02-15T02:20:28;99483.03;;;11.18;82.30
25610;BME280;13479;49.044;8.716;2024-02-15T02:22:54;99464.91;;;11.23;82.37
25610;BME280;13479;49.044;8.716;2024-02-15T02:25:25;99495.69;;;11.37;81.59
25610;BME280;13479;49.044;8.716;2024-02-15T02:27:53;99506.66;;;11.32;81.70
25610;BME280;13479;49.044;8.716;2024-02-15T02:30:20;99494.69;;;11.38;81.33
25610;BME280;13479;49.044;8.716;2024-02-15T02:32:47;99497.72;;;11.33;81.41
25610;BME280;13479;49.044;8.716;2024-02-15T02:35:12;99482.88;;;11.31;81.61
25610;BME280;13479;49.044;8.716;2024-02-15T02:37:39;99507.09;;;11.49;80.41
25610;BME280;13479;49.044;8.716;2024-02-15T02:40:05;99489.50;;;11.36;80.75
25610;BME280;13479;49.044;8.716;2024-02-15T02:42:36;99479.25;;;11.32;81.32
25610;BME280;13479;49.044;8.716;2024-02-15T02:45:11;99469.78;;;11.39;80.86
25610;BME280;13479;49.044;8.716;2024-02-15T02:47:36;99492.50;;;11.43;80.81
25610;BME280;13479;49.044;8.716;2024-02-15T02:50:01;99495.41;;;11.40;80.50
25610;BME280;13479;49.044;8.716;2024-02-15T02:52:28;99471.06;;;11.23;81.36
25610;BME280;13479;49.044;8.716;2024-02-15T02:54:53;99433.75;;;11.13;82.28
25610;BME280;13479;49.044;8.716;2024-02-15T02:57:18;99404.50;;;11.25;82.38
25610;BME280;13479;49.044;8.716;2024-02-15T02:59:43;99433.69;;;11.36;81.60
25610;BME280;13479;49.044;8.716;2024-02-15T03:02:10;99502.13;;;11.55;80.44
25610;BME280;13479;49.044;8.716;2024-02-15T03:04:35;99502.03;;;11.46;80.43
25610;BME280;13479;49.044;8.716;2024-02-15T03:07:00;99500.78;;;11.61;79.64
25610;BME280;13479;49.044;8.716;2024-02-15T03:09:26;99515.56;;;11.54;79.45
25610;BME280;13479;49.044;8.716;2024-02-15T03:11:55;99521.28;;;11.70;78.50
25610;BME280;13479;49.044;8.716;2024-02-15T03:14:20;99512.34;;;11.71;78.18
25610;BME280;13479;49.044;8.716;2024-02-15T03:16:46;99512.84;;;11.65;78.32
25610;BME280;13479;49.044;8.716;2024-02-15T03:19:11;99493.38;;;11.65;78.18
25610;BME280;13479;49.044;8.716;2024-02-15T03:21:37;99485.06;;;11.58;78.26
25610;BME280;13479;49.044;8.716;2024-02-15T03:24:02;99471.06;;;11.56;78.18
25610;BME280;13479;49.044;8.716;2024-02-15T03:26:31;99477.22;;;11.56;78.16
25610;BME280;13479;49.044;8.716;2024-02-15T03:29:04;99455.00;;;11.57;78.36
25610;BME280;13479;49.044;8.716;2024-02-15T03:31:29;99450.44;;;11.48;78.83
25610;BME280;13479;49.044;8.716;2024-02-15T03:33:57;99456.78;;;11.57;78.10
25610;BME280;13479;49.044;8.716;2024-02-15T03:36:22;99470.38;;;11.54;78.16
25610;BME280;13479;49.044;8.716;2024-02-15T03:38:48;99465.53;;;11.48;78.28
25610;BME280;13479;49.044;8.716;2024-02-15T03:41:13;99479.31;;;11.53;77.93
25610;BME280;13479;49.044;8.716;2024-02-15T03:43:39;99443.94;;;11.41;78.61
25610;BME280;13479;49.044;8.716;2024-02-15T03:46:04;99426.88;;;11.43;78.50
25610;BME280;13479;49.044;8.716;2024-02-15T03:48:30;99431.22;;;11.44;78.47
25610;BME280;13479;49.044;8.716;2024-02-15T03:50:57;99434.16;;;11.41;78.40
25610;BME280;13479;49.044;8.716;2024-02-15T03:53:23;99426.19;;;11.41;78.78
25610;BME280;13479;49.044;8.716;2024-02-15T03:55:48;99427.72;;;11.44;78.75
25610;BME280;13479;49.044;8.716;2024-02-15T03:58:14;99454.19;;;11.46;78.47
25610;BME280;13479;49.044;8.716;2024-02-15T04:00:40;99462.28;;;11.44;78.38
25610;BME280;13479;49.044;8.716;2024-02-15T04:03:05;99446.59;;;11.41;78.52
25610;BME280;13479;49.044;8.716;2024-02-15T04:05:30;99463.13;;;11.44;78.04
25610;BME280;13479;49.044;8.716;2024-02-15T04:07:56;99454.81;;;11.38;78.47
25610;BME280;13479;49.044;8.716;2024-02-15T04:10:21;99420.63;;;11.33;79.05
25610;BME280;13479;49.044;8.716;2024-02-15T04:12:47;99402.75;;;11.35;79.02
25610;BME280;13479;49.044;8.716;2024-02-15T04:15:12;99418.91;;;11.43;78.75
25610;BME280;13479;49.044;8.716;2024-02-15T04:17:39;99425.78;;;11.46;78.36
25610;BME280;13479;49.044;8.716;2024-02-15T04:20:06;99456.13;;;11.43;77.98
25610;BME280;13479;49.044;8.716;2024-02-15T04:22:34;99415.78;;;11.38;78.89
25610;BME280;13479;49.044;8.716;2024-02-15T04:25:03;99409.47;;;11.51;79.03
25610;BME280;13479;49.044;8.716;2024-02-15T04:27:28;99466.06;;;11.63;77.50
25610;BME280;13479;49.044;8.716;2024-02-15T04:29:53;99480.66;;;11.68;77.28
25610;BME280;13479;49.044;8.716;2024-02-15T04:32:19;99503.16;;;11.76;76.44
25610;BME280;13479;49.044;8.716;2024-02-15T04:34:44;99485.66;;;11.62;76.79
25610;BME280;13479;49.044;8.716;2024-02-15T04:37:12;99442.19;;;11.51;77.64
25610;BME280;13479;49.044;8.716;2024-02-15T04:39:38;99424.44;;;11.52;77.59
25610;BME280;13479;49.044;8.716;2024-02-15T04:42:04;99401.41;;;11.41;78.21
25610;BME280;13479;49.044;8.716;2024-02-15T04:44:39;99369.75;;;11.38;79.09
25610;BME280;13479;49.044;8.716;2024-02-15T04:47:05;99363.53;;;11.49;78.59
25610;BME280;13479;49.044;8.716;2024-02-15T04:49:31;99425.34;;;11.62;77.35
25610;BME280;13479;49.044;8.716;2024-02-15T04:51:57;99434.09;;;11.53;77.60
25610;BME280;13479;49.044;8.716;2024-02-15T04:54:22;99408.16;;;11.45;78.69
25610;BME280;13479;49.044;8.716;2024-02-15T04:56:47;99380.03;;;11.42;78.68
25610;BME280;13479;49.044;8.716;2024-02-15T04:59:13;99369.44;;;11.52;78.63
25610;BME280;13479;49.044;8.716;2024-02-15T05:01:41;99372.09;;;11.52;78.42
25610;BME280;13479;49.044;8.716;2024-02-15T05:04:10;99416.84;;;11.68;77.26
25610;BME280;13479;49.044;8.716;2024-02-15T05:06:36;99456.56;;;11.81;76.18
25610;BME280;13479;49.044;8.716;2024-02-15T05:09:05;99487.19;;;11.76;76.09
25610;BME280;13479;49.044;8.716;2024-02-15T05:11:36;99446.47;;;11.64;76.63
25610;BME280;13479;49.044;8.716;2024-02-15T05:14:05;99471.16;;;11.87;75.42
25610;BME280;13479;49.044;8.716;2024-02-15T05:16:32;99499.91;;;11.93;74.57
25610;BME280;13479;49.044;8.716;2024-02-15T05:18:58;99508.38;;;11.98;73.97
25610;BME280;13479;49.044;8.716;2024-02-15T05:21:23;99458.91;;;11.74;74.96
25610;BME280;13479;49.044;8.716;2024-02-15T05:23:48;99438.44;;;11.75;75.28
25610;BME280;13479;49.044;8.716;2024-02-15T05:26:13;99409.06;;;11.55;75.62
25610;BME280;13479;49.044;8.716;2024-02-15T05:28:41;99399.78;;;11.71;75.03
25610;BME280;13479;49.044;8.716;2024-02-15T05:31:20;99452.78;;;11.84;73.90
25610;BME280;13479;49.044;8.716;2024-02-15T05:33:46;99438.13;;;11.68;74.79
25610;BME280;13479;49.044;8.716;2024-02-15T05:36:16;99400.44;;;11.63;75.25
25610;BME280;13479;49.044;8.716;2024-02-15T05:38:46;99406.84;;;11.82;74.33
25610;BME280;13479;49.044;8.716;2024-02-15T05:41:11;99453.75;;;11.83;74.08
25610;BME280;13479;49.044;8.716;2024-02-15T05:43:38;99430.03;;;11.70;74.65
25610;BME280;13479;49.044;8.716;2024-02-15T05:46:04;99413.88;;;11.83;74.24
25610;BME280;13479;49.044;8.716;2024-02-15T05:48:29;99457.06;;;11.96;73.79
25610;BME280;13479;49.044;8.716;2024-02-15T05:50:55;99466.03;;;11.95;73.21
25610;BME280;13479;49.044;8.716;2024-02-15T05:53:23;99444.16;;;11.70;74.19
25610;BME280;13479;49.044;8.716;2024-02-15T05:55:48;99376.59;;;11.52;74.72
25610;BME280;13479;49.044;8.716;2024-02-15T05:58:15;99327.34;;;11.57;75.38
25610;BME280;13479;49.044;8.716;2024-02-15T06:00:40;99324.47;;;11.70;74.82
25610;BME280;13479;49.044;8.716;2024-02-15T06:03:06;99380.56;;;11.88;73.77
25610;BME280;13479;49.044;8.716;2024-02-15T06:05:31;99431.94;;;11.89;73.68
25610;BME280;13479;49.044;8.716;2024-02-15T06:07:57;99433.44;;;11.82;73.60
25610;BME280;13479;49.044;8.716;2024-02-15T06:10:23;99403.72;;;11.77;74.04
25610;BME280;13479;49.044;8.716;2024-02-15T06:12:49;99449.56;;;12.01;72.86
25610;BME280;13479;49.044;8.716;2024-02-15T06:15:14;99476.88;;;12.03;72.10
25610;BME280;13479;49.044;8.716;2024-02-15T06:17:43;99444.09;;;11.82;72.99
25610;BME280;13479;49.044;8.716;2024-02-15T06:20:13;99394.19;;;11.74;73.43
25610;BME280;13479;49.044;8.716;2024-02-15T06:22:43;99410.22;;;11.84;72.90
25610;BME280;13479;49.044;8.716;2024-02-15T06:25:09;99437.72;;;11.94;72.23
25610;BME280;13479;49.044;8.716;2024-02-15T06:27:39;99464.34;;;11.94;72.03
25610;BME280;13479;49.044;8.716;2024-02-15T06:30:09;99421.91;;;11.71;72.92
25610;BME280;13479;49.044;8.716;2024-02-15T06:32:53;99363.97;;;11.75;73.62
25610;BME280;13479;49.044;8.716;2024-02-15T06:35:37;99386.22;;;11.95;72.34
25610;BME280;13479;49.044;8.716;2024-02-15T06:38:22;99459.56;;;12.09;71.36
25610;BME280;13479;49.044;8.716;2024-02-15T06:41:07;99432.66;;;11.91;72.05
25610;BME280;13479;49.044;8.716;2024-02-15T06:43:32;99399.03;;;11.90;72.28
25610;BME280;13479;49.044;8.716;2024-02-15T06:45:59;99392.25;;;11.97;71.88
25610;BME280;13479;49.044;8.716;2024-02-15T06:48:25;99388.28;;;11.92;72.39
25610;BME280;13479;49.044;8.716;2024-02-15T06:50:51;99355.66;;;11.89;72.67
25610;BME280;13479;49.044;8.716;2024-02-15T06:53:16;99366.59;;;11.96;72.33
25610;BME280;13479;49.044;8.716;2024-02-15T06:55:42;99386.66;;;12.00;72.32
25610;BME280;13479;49.044;8.716;2024-02-15T06:58:08;99401.66;;;12.01;71.78
25610;BME280;13479;49.044;8.716;2024-02-15T07:00:33;99419.50;;;12.11;71.56
25610;BME280;13479;49.044;8.716;2024-02-15T07:02:58;99446.50;;;12.06;70.97
25610;BME280;13479;49.044;8.716;2024-02-15T07:05:24;99441.09;;;12.17;70.65
25610;BME280;13479;49.044;8.716;2024-02-15T07:07:51;99447.19;;;12.29;70.37
25610;BME280;13479;49.044;8.716;2024-02-15T07:10:17;99429.06;;;12.23;70.78
25610;BME280;13479;49.044;8.716;2024-02-15T07:12:42;99415.09;;;12.31;70.38
25610;BME280;13479;49.044;8.716;2024-02-15T07:15:09;99421.88;;;12.35;70.57
25610;BME280;13479;49.044;8.716;2024-02-15T07:17:35;99429.50;;;12.49;69.54
25610;BME280;13479;49.044;8.716;2024-02-15T07:20:03;99454.03;;;12.63;68.57
25610;BME280;13479;49.044;8.716;2024-02-15T07:22:30;99432.72;;;12.63;68.97
25610;BME280;13479;49.044;8.716;2024-02-15T07:24:56;99398.25;;;12.61;69.15
25610;BME280;13479;49.044;8.716;2024-02-15T07:27:21;99421.28;;;12.82;68.34
25610;BME280;13479;49.044;8.716;2024-02-15T07:29:50;99418.94;;;12.89;68.10
25610;BME280;13479;49.044;8.716;2024-02-15T07:32:15;99382.88;;;12.94;68.42
25610;BME280;13479;49.044;8.716;2024-02-15T07:34:42;99409.56;;;13.14;67.40
25610;BME280;13479;49.044;8.716;2024-02-15T07:37:09;99394.97;;;13.18;66.86
25610;BME280;13479;49.044;8.716;2024-02-15T07:39:34;99393.00;;;13.30;66.18
25610;BME280;13479;49.044;8.716;2024-02-15T07:42:01;99376.88;;;13.32;65.90
25610;BME280;13479;49.044;8.716;2024-02-15T07:44:29;99377.03;;;13.40;65.62
25610;BME280;13479;49.044;8.716;2024-02-15T07:46:57;99367.19;;;13.40;65.31
25610;BME280;13479;49.044;8.716;2024-02-15T07:49:24;99339.81;;;13.38;65.13
25610;BME280;13479;49.044;8.716;2024-02-15T07:51:49;99327.59;;;13.36;65.16
25610;BME280;13479;49.044;8.716;2024-02-15T07:54:18;99350.09;;;13.43;64.82
25610;BME280;13479;49.044;8.716;2024-02-15T07:56:49;99341.94;;;13.44;64.92
25610;BME280;13479;49.044;8.716;2024-02-15T07:59:15;99316.53;;;13.40;65.39
25610;BME280;13479;49.044;8.716;2024-02-15T08:01:44;99306.00;;;13.49;65.21
25610;BME280;13479;49.044;8.716;2024-02-15T08:04:12;99320.84;;;13.61;65.11
25610;BME280;13479;49.044;8.716;2024-02-15T08:06:38;99331.19;;;13.74;64.69
25610;BME280;13479;49.044;8.716;2024-02-15T08:09:03;99340.72;;;13.77;64.04
25610;BME280;13479;49.044;8.716;2024-02-15T08:11:31;99334.84;;;13.73;64.44
25610;BME280;13479;49.044;8.716;2024-02-15T08:13:57;99332.19;;;13.73;64.24
25610;BME280;13479;49.044;8.716;2024-02-15T08:16:25;99289.50;;;13.63;64.99
25610;BME280;13479;49.044;8.716;2024-02-15T08:18:54;99276.16;;;13.73;64.66
25610;BME280;13479;49.044;8.716;2024-02-15T08:23:52;99280.41;;;13.94;64.90
25610;BME280;13479;49.044;8.716;2024-02-15T08:26:17;99325.13;;;14.19;63.78
25610;BME280;13479;49.044;8.716;2024-02-15T08:28:43;99363.25;;;14.40;62.14
25610;BME280;13479;49.044;8.716;2024-02-15T08:31:08;99348.06;;;14.40;62.21
25610;BME280;13479;49.044;8.716;2024-02-15T08:33:35;99331.13;;;14.49;61.95
25610;BME280;13479;49.044;8.716;2024-02-15T08:36:04;99327.13;;;14.63;61.63
25610;BME280;13479;49.044;8.716;2024-02-15T08:38:30;99322.81;;;14.80;61.37
25610;BME280;13479;49.044;8.716;2024-02-15T08:40:55;99322.94;;;14.97;60.45
25610;BME280;13479;49.044;8.716;2024-02-15T08:43:20;99314.06;;;15.14;60.01
25610;BME280;13479;49.044;8.716;2024-02-15T08:45:46;99311.78;;;15.46;58.73
25610;BME280;13479;49.044;8.716;2024-02-15T08:48:11;99312.94;;;15.70;58.23
25610;BME280;13479;49.044;8.716;2024-02-15T08:50:36;99305.78;;;16.05;57.96
25610;BME280;13479;49.044;8.716;2024-02-15T08:53:02;99315.00;;;16.54;56.69
25610;BME280;13479;49.044;8.716;2024-02-15T08:55:31;99314.75;;;17.31;55.70
25610;BME280;13479;49.044;8.716;2024-02-15T08:57:57;99317.06;;;18.24;52.73
25610;BME280;13479;49.044;8.716;2024-02-15T09:00:22;99326.97;;;19.09;50.85
25610;BME280;13479;49.044;8.716;2024-02-15T09:02:49;99339.13;;;20.12;47.79
25610;BME280;13479;49.044;8.716;2024-02-15T09:05:14;99366.28;;;21.13;46.46
25610;BME280;13479;49.044;8.716;2024-02-15T09:07:44;99381.97;;;22.39;43.68
25610;BME280;13479;49.044;8.716;2024-02-15T09:10:13;99405.44;;;23.62;40.15
25610;BME280;13479;49.044;8.716;2024-02-15T09:12:39;99414.88;;;24.52;37.37
25610;BME280;13479;49.044;8.716;2024-02-15T09:15:09;99413.63;;;24.55;36.87
25610;BME280;13479;49.044;8.716;2024-02-15T09:17:35;99421.94;;;24.66;36.69
25610;BME280;13479;49.044;8.716;2024-02-15T09:22:32;99409.19;;;25.12;35.53
25610;BME280;13479;49.044;8.716;2024-02-15T09:24:58;99419.50;;;25.36;34.87
25610;BME280;13479;49.044;8.716;2024-02-15T09:27:23;99420.50;;;25.48;34.09
25610;BME280;13479;49.044;8.716;2024-02-15T09:29:48;99415.84;;;25.23;34.25
25610;BME280;13479;49.044;8.716;2024-02-15T09:32:13;99408.09;;;24.88;34.81
25610;BME280;13479;49.044;8.716;2024-02-15T09:34:39;99406.06;;;24.63;35.28
25610;BME280;13479;49.044;8.716;2024-02-15T09:37:05;99398.56;;;24.65;35.11
25610;BME280;13479;49.044;8.716;2024-02-15T09:39:30;99389.03;;;24.43;35.46
25610;BME280;13479;49.044;8.716;2024-02-15T09:41:56;99392.69;;;23.89;35.93
25610;BME280;13479;49.044;8.716;2024-02-15T09:44:24;99370.59;;;23.59;36.24
25610;BME280;13479;49.044;8.716;2024-02-15T09:47:01;99359.75;;;23.79;36.23
25610;BME280;13479;49.044;8.716;2024-02-15T09:49:29;99365.34;;;24.18;35.48
25610;BME280;13479;49.044;8.716;2024-02-15T09:51:55;99376.28;;;24.50;35.15
25610;BME280;13479;49.044;8.716;2024-02-15T09:54:21;99372.13;;;24.93;34.78
25610;BME280;13479;49.044;8.716;2024-02-15T09:56:48;99375.16;;;25.42;34.56
25610;BME280;13479;49.044;8.716;2024-02-15T09:59:14;99386.59;;;25.76;32.82
25610;BME280;13479;49.044;8.716;2024-02-15T10:01:41;99382.28;;;25.43;32.70
25610;BME280;13479;49.044;8.716;2024-02-15T10:04:07;99393.81;;;25.32;33.21
25610;BME280;13479;49.044;8.716;2024-02-15T10:06:32;99382.53;;;25.03;33.24
25610;BME280;13479;49.044;8.716;2024-02-15T10:09:26;99367.72;;;24.53;34.06
25610;BME280;13479;49.044;8.716;2024-02-15T10:12:02;99361.16;;;24.22;34.63
25610;BME280;13479;49.044;8.716;2024-02-15T10:14:29;99343.22;;;24.21;35.11
25610;BME280;13479;49.044;8.716;2024-02-15T10:16:55;99326.06;;;24.27;34.81
25610;BME280;13479;49.044;8.716;2024-02-15T10:19:21;99312.97;;;24.24;35.17
25610;BME280;13479;49.044;8.716;2024-02-15T10:21:54;99310.28;;;24.11;34.54
25610;BME280;13479;49.044;8.716;2024-02-15T10:24:23;99304.50;;;23.67;35.42
25610;BME280;13479;49.044;8.716;2024-02-15T10:27:00;99293.91;;;23.45;35.51
25610;BME280;13479;49.044;8.716;2024-02-15T10:29:29;99278.53;;;23.25;36.27
25610;BME280;13479;49.044;8.716;2024-02-15T10:31:56;99271.63;;;23.36;35.87
25610;BME280;13479;49.044;8.716;2024-02-15T10:34:23;99278.31;;;23.27;35.98
25610;BME280;13479;49.044;8.716;2024-02-15T10:36:50;99272.03;;;23.06;36.39
25610;BME280;13479;49.044;8.716;2024-02-15T10:39:19;99263.66;;;22.61;36.68
25610;BME280;13479;49.044;8.716;2024-02-15T10:41:49;99246.88;;;22.24;37.29
25610;BME280;13479;49.044;8.716;2024-02-15T10:44:22;99243.53;;;22.15;38.01
25610;BME280;13479;49.044;8.716;2024-02-15T10:46:49;99239.00;;;22.29;37.94
25610;BME280;13479;49.044;8.716;2024-02-15T10:49:24;99249.75;;;22.15;36.76
25610;BME280;13479;49.044;8.716;2024-02-15T10:52:00;99261.19;;;21.69;37.34
25610;BME280;13479;49.044;8.716;2024-02-15T10:57:29;99225.53;;;21.17;38.05
25610;BME280;13479;49.044;8.716;2024-02-15T10:59:57;99208.00;;;21.06;38.63
25610;BME280;13479;49.044;8.716;2024-02-15T11:02:26;99207.44;;;20.89;38.92
25610;BME280;13479;49.044;8.716;2024-02-15T11:05:00;99204.31;;;20.85;39.46
25610;BME280;13479;49.044;8.716;2024-02-15T11:07:29;99200.69;;;20.78;39.68
25610;BME280;13479;49.044;8.716;2024-02-15T11:09:56;99193.75;;;20.47;40.67
25610;BME280;13479;49.044;8.716;2024-02-15T11:12:25;99189.38;;;20.24;40.55
25610;BME280;13479;49.044;8.716;2024-02-15T11:14:53;99178.69;;;19.94;41.10
25610;BME280;13479;49.044;8.716;2024-02-15T11:20:08;99166.13;;;19.50;42.21
25610;BME280;13479;49.044;8.716;2024-02-15T11:22:38;99156.84;;;19.37;42.10
25610;BME280;13479;49.044;8.716;2024-02-15T11:25:04;99144.84;;;19.25;42.50
25610;BME280;13479;49.044;8.716;2024-02-15T11:27:35;99145.06;;;19.23;42.31
25610;BME280;13479;49.044;8.716;2024-02-15T11:30:02;99150.25;;;19.25;42.29
25610;BME280;13479;49.044;8.716;2024-02-15T11:32:49;99143.19;;;19.09;42.84
25610;BME280;13479;49.044;8.716;2024-02-15T11:35:26;99139.84;;;19.07;43.17
25610;BME280;13479;49.044;8.716;2024-02-15T11:37:54;99134.34;;;19.00;43.80
25610;BME280;13479;49.044;8.716;2024-02-15T11:40:28;99141.63;;;19.14;43.19
25610;BME280;13479;49.044;8.716;2024-02-15T11:42:57;99134.09;;;18.95;43.45
25610;BME280;13479;49.044;8.716;2024-02-15T11:45:25;99115.03;;;18.81;44.24
25610;BME280;13479;49.044;8.716;2024-02-15T11:47:53;99134.13;;;18.87;43.56
25610;BME280;13479;49.044;8.716;2024-02-15T11:50:20;99121.13;;;18.75;44.26
25610;BME280;13479;49.044;8.716;2024-02-15T11:52:50;99114.81;;;18.68;44.30
25610;BME280;13479;49.044;8.716;2024-02-15T11:55:20;99116.84;;;18.66;44.26
25610;BME280;13479;49.044;8.716;2024-02-15T11:57:59;99106.19;;;18.73;43.95
25610;BME280;13479;49.044;8.716;2024-02-15T12:00:30;99119.94;;;18.78;43.43
25610;BME280;13479;49.044;8.716;2024-02-15T12:03:15;99128.25;;;18.68;43.50
25610;BME280;13479;49.044;8.716;2024-02-15T12:05:59;99120.25;;;18.45;43.54
25610;BME280;13479;49.044;8.716;2024-02-15T12:08:47;99112.97;;;18.30;44.19
25610;BME280;13479;49.044;8.716;2024-02-15T12:11:31;99092.66;;;18.28;44.28
25610;BME280;13479;49.044;8.716;2024-02-15T12:14:16;99092.00;;;18.26;44.04
25610;BME280;13479;49.044;8.716;2024-02-15T12:17:01;99076.44;;;18.21;44.54
25610;BME280;13479;49.044;8.716;2024-02-15T12:19:47;99066.16;;;18.25;45.17
25610;BME280;13479;49.044;8.716;2024-02-15T12:22:14;99093.25;;;18.38;43.72
25610;BME280;13479;49.044;8.716;2024-02-15T12:24:40;99090.59;;;18.30;44.00
25610;BME280;13479;49.044;8.716;2024-02-15T12:27:05;99083.94;;;18.26;44.37
25610;BME280;13479;49.044;8.716;2024-02-15T12:29:32;99068.41;;;18.36;44.39
25610;BME280;13479;49.044;8.716;2024-02-15T12:31:58;99052.50;;;18.49;44.63
25610;BME280;13479;49.044;8.716;2024-02-15T12:34:24;99046.84;;;18.59;44.66
25610;BME280;13479;49.044;8.716;2024-02-15T12:36:49;99048.97;;;18.64;44.34
25610;BME280;13479;49.044;8.716;2024-02-15T12:39:24;99035.25;;;18.59;45.21
25610;BME280;13479;49.044;8.716;2024-02-15T12:41:50;99022.72;;;18.51;46.00
25610;BME280;13479;49.044;8.716;2024-02-15T12:44:16;99052.88;;;18.61;44.57
25610;BME280;13479;49.044;8.716;2024-02-15T12:46:42;99049.72;;;18.58;44.57
25610;BME280;13479;49.044;8.716;2024-02-15T12:49:11;99049.97;;;18.48;44.99
25610;BME280;13479;49.044;8.716;2024-02-15T12:51:39;99025.88;;;18.40;45.67
25610;BME280;13479;49.044;8.716;2024-02-15T12:54:09;99023.72;;;18.35;45.52
25610;BME280;13479;49.044;8.716;2024-02-15T12:56:39;99021.50;;;18.24;45.62
25610;BME280;13479;49.044;8.716;2024-02-15T12:59:04;99012.44;;;18.40;45.33
25610;BME280;13479;49.044;8.716;2024-02-15T13:01:31;99021.91;;;18.50;44.78
25610;BME280;13479;49.044;8.716;2024-02-15T13:03:56;99013.66;;;18.52;44.92
25610;BME280;13479;49.044;8.716;2024-02-15T13:06:22;99024.69;;;18.57;44.94
25610;BME280;13479;49.044;8.716;2024-02-15T13:08:49;99026.91;;;18.53;44.81
25610;BME280;13479;49.044;8.716;2024-02-15T13:11:14;99001.97;;;18.45;45.78
25610;BME280;13479;49.044;8.716;2024-02-15T13:13:41;99012.91;;;18.58;45.31